Current | Forecast
Updated: 11:30 AM MSK on August 18, 2017
Observed at Saratov, Russia
Temperature 77°F
Humidity 44%
Dew Point 54°F
Wind NE at 13 mph
Pressure 30.27 in (Steady)
Conditions Clear
Visibility -
UV N/A
Clouds
Yesterday's Maximum 82°F
Yesterday's Minimum 61°F approx.
Yesterday's Cooling Degree Days 7 approx.
Sunrise4:45 AM MSK
Sunset7:14 PM MSK
Moon Rise12:39 AM MSK
Moon Set4:48 PM MSK
Moon PhaseMoon Phase
Waning Crescent
Raw METARMETAR UWSS 180830Z 05006MPS CAVOK 25/12 Q1025 R12/010095 NOSIG RMK QFE756


Monday
. High: 73° F.
Tuesday
. High: 71° F.
Wednesday
. High: 66° F.
Thursday
. High: 59° F.
Friday
. High: 59° F.
Saturday
. High: 59° F.
Sunday
. High: 66° F.
Monday
. High: 68° F.

Units: English | Metric

Find the Weather for any City, State or Zipcode, or Country:

U.S. State List | Severe Weather | Tropical Storms | Ski Conditions
United States | Canada | Central America | South America | Asia | Europe | Australia | Africa | Islands

Weather Underground

© Copyright 2017
The Weather Company, LLC